Hauptseite
METAR-TAF:

METAR-TAF

Flughäfen :

Yap, Mikronesien

Breite: 09-29N, Länge: 138-05E, Höhe: 28 m

Beobachtung

Neuester Wetterbericht von vor 1 Stunde und 1 Minuten, um 09:53 UTC
Wind 4 kt aus unterschiedlichen Richtungen
Temperatur 27°C
Luftfeuchtigkeit 79%
Luftdruck 1011 hPa
Sichtweite: 19.3 km
Leicht bewölkt in der Höhe von 1600 ft
Durchbrochene Bewölkung in der Höhe von 30000 ft

METAR: PTYA 220953Z VRB04KT 12SM FEW016 BKN300 27/23 A2985 RMK SLP110 T02700234

Zeit: 20:54 (10:54 UTC)

Prognose

Neuester Wetterbericht von vor 5 Stunden und 28 Minuten, um 05:26 UTC
Gültige Prognose vom 22 um 06 UTC bis 23 um 06 UTC
Wind 12 kt aus Nordost
Sichtweite: 10 km
Leicht bewölkt in der Höhe von 1600 ft
Aufgelockert bewölkt in der Höhe von 3000 ft
Schauer in der Nähe

TAF: PTYA 220526Z 2206/2306 04012KT P6SM VCSH FEW016 SCT030

Wetterbeobachtungen und Prognosen von mehr als 4000 Flughäfen (METAR und TAF Bericht).

Die verfügbaren Stationen werden durch gelbe und rote Markierungen auf der Karte dargestellt.

Führen Sie die Maus auf sie, um den Namen der Station zu sehen.

Darauf klicken, um die Beobachtung von Wetterbeobachtungen und Prognosen zu sehen.

Um die Karte zu ändern : klicken Sie auf den grünen Tasten mit einem schwarzen Kreuz Zum Vergrößern, auf den grünen Button mit einem Gedankenstrich zu verkleinern, oder auf die grünen Pfeile für benachbarte Karten.


METAR-TAF: